sensor_id;sensor_type;location;lat;lon;timestamp;P1;durP1;ratioP1;P2;durP2;ratioP2
60454;SDS011;54989;53.398;6.564;2022-09-24T00:01:36;2.50;;;2.30;;
60454;SDS011;54989;53.398;6.564;2022-09-24T00:04:05;2.25;;;2.05;;
60454;SDS011;54989;53.398;6.564;2022-09-24T00:06:35;2.63;;;2.42;;
60454;SDS011;54989;53.398;6.564;2022-09-24T00:09:10;2.60;;;2.40;;
60454;SDS011;54989;53.398;6.564;2022-09-24T00:11:39;3.40;;;2.50;;
60454;SDS011;54989;53.398;6.564;2022-09-24T00:14:07;2.95;;;2.65;;
60454;SDS011;54989;53.398;6.564;2022-09-24T00:16:35;3.15;;;2.70;;
60454;SDS011;54989;53.398;6.564;2022-09-24T00:19:04;3.25;;;2.95;;
60454;SDS011;54989;53.398;6.564;2022-09-24T00:21:33;2.80;;;2.60;;
60454;SDS011;54989;53.398;6.564;2022-09-24T00:24:09;2.75;;;2.55;;
60454;SDS011;54989;53.398;6.564;2022-09-24T00:26:58;2.95;;;2.67;;
60454;SDS011;54989;53.398;6.564;2022-09-24T00:29:28;2.67;;;2.47;;
60454;SDS011;54989;53.398;6.564;2022-09-24T00:32:00;3.28;;;2.97;;
60454;SDS011;54989;53.398;6.564;2022-09-24T00:34:28;2.50;;;2.30;;
60454;SDS011;54989;53.398;6.564;2022-09-24T00:36:55;2.85;;;2.65;;
60454;SDS011;54989;53.398;6.564;2022-09-24T00:39:22;2.45;;;2.33;;
60454;SDS011;54989;53.398;6.564;2022-09-24T00:41:50;2.80;;;2.60;;
60454;SDS011;54989;53.398;6.564;2022-09-24T00:50:24;2.58;;;2.38;;
60454;SDS011;54989;53.398;6.564;2022-09-24T00:53:04;3.15;;;2.85;;
60454;SDS011;54989;53.398;6.564;2022-09-24T00:55:45;2.80;;;2.50;;
60454;SDS011;54989;53.398;6.564;2022-09-24T00:58:16;2.55;;;2.35;;
60454;SDS011;54989;53.398;6.564;2022-09-24T01:00:44;2.58;;;2.38;;
60454;SDS011;54989;53.398;6.564;2022-09-24T01:03:13;2.22;;;2.13;;
60454;SDS011;54989;53.398;6.564;2022-09-24T01:05:45;2.80;;;2.60;;
60454;SDS011;54989;53.398;6.564;2022-09-24T01:08:13;2.20;;;2.00;;
60454;SDS011;54989;53.398;6.564;2022-09-24T01:13:41;2.80;;;2.60;;
60454;SDS011;54989;53.398;6.564;2022-09-24T01:16:45;2.78;;;2.58;;
60454;SDS011;54989;53.398;6.564;2022-09-24T01:22:25;2.53;;;2.30;;
60454;SDS011;54989;53.398;6.564;2022-09-24T01:28:39;3.20;;;2.95;;
60454;SDS011;54989;53.398;6.564;2022-09-24T01:31:35;2.60;;;2.40;;
60454;SDS011;54989;53.398;6.564;2022-09-24T01:34:12;2.55;;;2.35;;
60454;SDS011;54989;53.398;6.564;2022-09-24T01:36:44;2.80;;;2.60;;
60454;SDS011;54989;53.398;6.564;2022-09-24T01:39:14;2.77;;;2.57;;
60454;SDS011;54989;53.398;6.564;2022-09-24T01:41:44;2.63;;;2.42;;
60454;SDS011;54989;53.398;6.564;2022-09-24T01:44:12;2.50;;;2.28;;
60454;SDS011;54989;53.398;6.564;2022-09-24T01:46:41;2.40;;;2.25;;
60454;SDS011;54989;53.398;6.564;2022-09-24T01:49:09;2.67;;;2.47;;
60454;SDS011;54989;53.398;6.564;2022-09-24T01:51:41;2.33;;;2.13;;
60454;SDS011;54989;53.398;6.564;2022-09-24T01:54:36;2.70;;;2.50;;
60454;SDS011;54989;53.398;6.564;2022-09-24T01:57:28;2.83;;;2.63;;
60454;SDS011;54989;53.398;6.564;2022-09-24T02:05:33;2.50;;;2.30;;
60454;SDS011;54989;53.398;6.564;2022-09-24T02:08:06;2.67;;;2.47;;
60454;SDS011;54989;53.398;6.564;2022-09-24T02:11:00;2.55;;;2.35;;
60454;SDS011;54989;53.398;6.564;2022-09-24T02:13:35;2.08;;;1.90;;
60454;SDS011;54989;53.398;6.564;2022-09-24T02:16:07;2.20;;;2.10;;
60454;SDS011;54989;53.398;6.564;2022-09-24T02:18:41;2.17;;;2.00;;
60454;SDS011;54989;53.398;6.564;2022-09-24T02:21:15;2.47;;;2.28;;
60454;SDS011;54989;53.398;6.564;2022-09-24T02:23:45;2.30;;;2.10;;
60454;SDS011;54989;53.398;6.564;2022-09-24T02:26:17;2.45;;;2.25;;
60454;SDS011;54989;53.398;6.564;2022-09-24T02:28:44;2.35;;;2.20;;
60454;SDS011;54989;53.398;6.564;2022-09-24T02:31:13;2.40;;;2.20;;
60454;SDS011;54989;53.398;6.564;2022-09-24T02:33:48;2.33;;;2.13;;
60454;SDS011;54989;53.398;6.564;2022-09-24T02:36:35;1.80;;;1.70;;
60454;SDS011;54989;53.398;6.564;2022-09-24T02:39:04;2.38;;;2.28;;
60454;SDS011;54989;53.398;6.564;2022-09-24T02:41:32;1.95;;;1.85;;
60454;SDS011;54989;53.398;6.564;2022-09-24T02:44:01;1.75;;;1.65;;
60454;SDS011;54989;53.398;6.564;2022-09-24T02:46:28;2.10;;;1.90;;
60454;SDS011;54989;53.398;6.564;2022-09-24T02:48:56;2.10;;;2.00;;
60454;SDS011;54989;53.398;6.564;2022-09-24T02:51:23;1.92;;;1.83;;
60454;SDS011;54989;53.398;6.564;2022-09-24T02:53:51;2.05;;;1.85;;
60454;SDS011;54989;53.398;6.564;2022-09-24T02:56:18;1.90;;;1.80;;
60454;SDS011;54989;53.398;6.564;2022-09-24T02:58:46;1.73;;;1.63;;
60454;SDS011;54989;53.398;6.564;2022-09-24T03:01:13;1.90;;;1.80;;
60454;SDS011;54989;53.398;6.564;2022-09-24T03:03:41;1.90;;;1.80;;
60454;SDS011;54989;53.398;6.564;2022-09-24T03:06:09;1.60;;;1.50;;
60454;SDS011;54989;53.398;6.564;2022-09-24T03:08:38;1.50;;;1.40;;
60454;SDS011;54989;53.398;6.564;2022-09-24T03:11:08;1.70;;;1.60;;
60454;SDS011;54989;53.398;6.564;2022-09-24T03:13:43;1.73;;;1.63;;
60454;SDS011;54989;53.398;6.564;2022-09-24T03:16:10;1.50;;;1.40;;
60454;SDS011;54989;53.398;6.564;2022-09-24T03:18:38;1.38;;;1.30;;
60454;SDS011;54989;53.398;6.564;2022-09-24T03:21:07;1.20;;;1.20;;
60454;SDS011;54989;53.398;6.564;2022-09-24T03:23:38;1.75;;;1.40;;
60454;SDS011;54989;53.398;6.564;2022-09-24T03:26:07;1.50;;;1.40;;
60454;SDS011;54989;53.398;6.564;2022-09-24T03:28:35;1.30;;;1.20;;
60454;SDS011;54989;53.398;6.564;2022-09-24T03:31:02;1.33;;;1.13;;
60454;SDS011;54989;53.398;6.564;2022-09-24T03:33:32;1.38;;;1.27;;
60454;SDS011;54989;53.398;6.564;2022-09-24T03:36:00;1.25;;;1.15;;
60454;SDS011;54989;53.398;6.564;2022-09-24T03:38:32;1.38;;;1.27;;
60454;SDS011;54989;53.398;6.564;2022-09-24T03:41:00;1.45;;;1.35;;
60454;SDS011;54989;53.398;6.564;2022-09-24T03:43:29;1.33;;;1.23;;
60454;SDS011;54989;53.398;6.564;2022-09-24T03:45:57;1.30;;;1.20;;
60454;SDS011;54989;53.398;6.564;2022-09-24T03:48:25;1.23;;;1.13;;
60454;SDS011;54989;53.398;6.564;2022-09-24T03:50:53;1.30;;;1.20;;
60454;SDS011;54989;53.398;6.564;2022-09-24T03:53:20;1.88;;;1.23;;
60454;SDS011;54989;53.398;6.564;2022-09-24T03:55:52;1.40;;;1.30;;
60454;SDS011;54989;53.398;6.564;2022-09-24T03:58:22;1.08;;;1.08;;
60454;SDS011;54989;53.398;6.564;2022-09-24T04:00:51;1.10;;;1.10;;
60454;SDS011;54989;53.398;6.564;2022-09-24T04:03:23;1.13;;;1.13;;
60454;SDS011;54989;53.398;6.564;2022-09-24T04:05:51;1.10;;;1.00;;
60454;SDS011;54989;53.398;6.564;2022-09-24T04:08:19;1.38;;;1.00;;
60454;SDS011;54989;53.398;6.564;2022-09-24T04:10:47;1.10;;;0.93;;
60454;SDS011;54989;53.398;6.564;2022-09-24T04:13:16;1.15;;;1.05;;
60454;SDS011;54989;53.398;6.564;2022-09-24T04:15:44;0.90;;;0.90;;
60454;SDS011;54989;53.398;6.564;2022-09-24T04:18:13;1.10;;;1.10;;
60454;SDS011;54989;53.398;6.564;2022-09-24T04:20:41;1.20;;;1.10;;
60454;SDS011;54989;53.398;6.564;2022-09-24T04:23:09;1.20;;;1.10;;
60454;SDS011;54989;53.398;6.564;2022-09-24T04:25:37;1.30;;;1.20;;
60454;SDS011;54989;53.398;6.564;2022-09-24T04:28:06;1.05;;;1.00;;
60454;SDS011;54989;53.398;6.564;2022-09-24T04:30:35;0.90;;;0.90;;
60454;SDS011;54989;53.398;6.564;2022-09-24T04:33:04;1.38;;;1.10;;
60454;SDS011;54989;53.398;6.564;2022-09-24T04:35:32;1.98;;;1.30;;
60454;SDS011;54989;53.398;6.564;2022-09-24T04:38:04;1.08;;;0.98;;
60454;SDS011;54989;53.398;6.564;2022-09-24T04:40:31;1.20;;;1.10;;
60454;SDS011;54989;53.398;6.564;2022-09-24T04:42:59;1.05;;;0.95;;
60454;SDS011;54989;53.398;6.564;2022-09-24T04:45:28;1.02;;;0.93;;
60454;SDS011;54989;53.398;6.564;2022-09-24T04:47:56;1.42;;;1.10;;
60454;SDS011;54989;53.398;6.564;2022-09-24T04:50:27;1.00;;;0.90;;
60454;SDS011;54989;53.398;6.564;2022-09-24T04:52:58;1.40;;;1.00;;
60454;SDS011;54989;53.398;6.564;2022-09-24T04:55:27;1.23;;;1.10;;
60454;SDS011;54989;53.398;6.564;2022-09-24T04:57:57;1.10;;;1.00;;
60454;SDS011;54989;53.398;6.564;2022-09-24T05:00:25;0.80;;;0.80;;
60454;SDS011;54989;53.398;6.564;2022-09-24T05:02:56;0.80;;;0.80;;
60454;SDS011;54989;53.398;6.564;2022-09-24T05:05:25;1.92;;;1.10;;
60454;SDS011;54989;53.398;6.564;2022-09-24T05:07:53;1.27;;;1.17;;
60454;SDS011;54989;53.398;6.564;2022-09-24T05:10:24;0.95;;;0.88;;
60454;SDS011;54989;53.398;6.564;2022-09-24T05:12:53;1.23;;;1.05;;
60454;SDS011;54989;53.398;6.564;2022-09-24T05:15:21;1.35;;;1.15;;
60454;SDS011;54989;53.398;6.564;2022-09-24T05:17:49;1.52;;;0.93;;
60454;SDS011;54989;53.398;6.564;2022-09-24T05:20:16;0.93;;;0.93;;
60454;SDS011;54989;53.398;6.564;2022-09-24T05:22:44;0.90;;;0.90;;
60454;SDS011;54989;53.398;6.564;2022-09-24T05:25:13;1.00;;;1.00;;
60454;SDS011;54989;53.398;6.564;2022-09-24T05:27:45;1.58;;;1.15;;
60454;SDS011;54989;53.398;6.564;2022-09-24T05:30:14;0.88;;;0.88;;
60454;SDS011;54989;53.398;6.564;2022-09-24T05:32:43;0.93;;;0.90;;
60454;SDS011;54989;53.398;6.564;2022-09-24T05:35:11;0.80;;;0.80;;
60454;SDS011;54989;53.398;6.564;2022-09-24T05:37:39;1.42;;;1.00;;
60454;SDS011;54989;53.398;6.564;2022-09-24T05:40:07;1.08;;;0.98;;
60454;SDS011;54989;53.398;6.564;2022-09-24T05:42:58;1.83;;;0.90;;
60454;SDS011;54989;53.398;6.564;2022-09-24T05:45:27;1.95;;;1.00;;
60454;SDS011;54989;53.398;6.564;2022-09-24T05:47:55;1.10;;;0.90;;
60454;SDS011;54989;53.398;6.564;2022-09-24T05:50:25;1.00;;;0.80;;
60454;SDS011;54989;53.398;6.564;2022-09-24T05:52:53;1.05;;;0.90;;
60454;SDS011;54989;53.398;6.564;2022-09-24T05:55:21;0.82;;;0.82;;
60454;SDS011;54989;53.398;6.564;2022-09-24T05:57:48;0.75;;;0.75;;
60454;SDS011;54989;53.398;6.564;2022-09-24T06:00:15;0.80;;;0.80;;
60454;SDS011;54989;53.398;6.564;2022-09-24T06:02:43;1.85;;;0.93;;
60454;SDS011;54989;53.398;6.564;2022-09-24T06:05:12;1.85;;;0.90;;
60454;SDS011;54989;53.398;6.564;2022-09-24T06:07:40;0.95;;;0.85;;
60454;SDS011;54989;53.398;6.564;2022-09-24T06:10:07;1.00;;;0.90;;
60454;SDS011;54989;53.398;6.564;2022-09-24T06:12:35;0.77;;;0.77;;
60454;SDS011;54989;53.398;6.564;2022-09-24T06:15:03;0.80;;;0.80;;
60454;SDS011;54989;53.398;6.564;2022-09-24T06:17:30;1.10;;;0.90;;
60454;SDS011;54989;53.398;6.564;2022-09-24T06:19:58;0.93;;;0.80;;
60454;SDS011;54989;53.398;6.564;2022-09-24T06:22:26;0.93;;;0.70;;
60454;SDS011;54989;53.398;6.564;2022-09-24T06:24:54;0.77;;;0.77;;
60454;SDS011;54989;53.398;6.564;2022-09-24T06:27:22;1.02;;;0.93;;
60454;SDS011;54989;53.398;6.564;2022-09-24T06:29:50;1.02;;;0.88;;
60454;SDS011;54989;53.398;6.564;2022-09-24T06:32:17;1.95;;;0.85;;
60454;SDS011;54989;53.398;6.564;2022-09-24T06:34:45;1.30;;;0.90;;
60454;SDS011;54989;53.398;6.564;2022-09-24T06:37:13;1.70;;;1.02;;
60454;SDS011;54989;53.398;6.564;2022-09-24T06:39:40;1.40;;;0.80;;
60454;SDS011;54989;53.398;6.564;2022-09-24T06:42:08;1.10;;;1.00;;
60454;SDS011;54989;53.398;6.564;2022-09-24T06:44:37;1.58;;;0.80;;
60454;SDS011;54989;53.398;6.564;2022-09-24T06:47:05;1.70;;;1.08;;
60454;SDS011;54989;53.398;6.564;2022-09-24T06:49:32;1.40;;;1.05;;
60454;SDS011;54989;53.398;6.564;2022-09-24T06:52:00;0.98;;;0.80;;
60454;SDS011;54989;53.398;6.564;2022-09-24T06:54:28;0.85;;;0.80;;
60454;SDS011;54989;53.398;6.564;2022-09-24T06:56:56;1.63;;;0.70;;
60454;SDS011;54989;53.398;6.564;2022-09-24T06:59:23;2.95;;;0.90;;
60454;SDS011;54989;53.398;6.564;2022-09-24T07:01:51;0.98;;;0.80;;
60454;SDS011;54989;53.398;6.564;2022-09-24T07:04:19;1.10;;;0.80;;
60454;SDS011;54989;53.398;6.564;2022-09-24T07:06:46;1.33;;;0.70;;
60454;SDS011;54989;53.398;6.564;2022-09-24T07:09:32;1.58;;;1.10;;
60454;SDS011;54989;53.398;6.564;2022-09-24T07:12:02;1.73;;;0.98;;
60454;SDS011;54989;53.398;6.564;2022-09-24T07:14:31;1.63;;;1.02;;
60454;SDS011;54989;53.398;6.564;2022-09-24T07:16:58;2.35;;;0.75;;
60454;SDS011;54989;53.398;6.564;2022-09-24T07:19:26;1.30;;;0.80;;
60454;SDS011;54989;53.398;6.564;2022-09-24T07:21:54;1.77;;;0.80;;
60454;SDS011;54989;53.398;6.564;2022-09-24T07:24:21;1.67;;;0.90;;
60454;SDS011;54989;53.398;6.564;2022-09-24T07:26:49;1.30;;;1.10;;
60454;SDS011;54989;53.398;6.564;2022-09-24T07:29:17;1.70;;;0.90;;
60454;SDS011;54989;53.398;6.564;2022-09-24T07:31:44;0.93;;;0.90;;
60454;SDS011;54989;53.398;6.564;2022-09-24T07:34:12;3.03;;;0.98;;
60454;SDS011;54989;53.398;6.564;2022-09-24T07:36:40;1.63;;;0.85;;
60454;SDS011;54989;53.398;6.564;2022-09-24T07:39:08;1.25;;;0.90;;
60454;SDS011;54989;53.398;6.564;2022-09-24T07:41:36;2.10;;;1.08;;
60454;SDS011;54989;53.398;6.564;2022-09-24T07:44:08;2.30;;;0.98;;
60454;SDS011;54989;53.398;6.564;2022-09-24T07:46:35;1.13;;;0.70;;
60454;SDS011;54989;53.398;6.564;2022-09-24T07:49:03;1.00;;;0.80;;
60454;SDS011;54989;53.398;6.564;2022-09-24T07:51:31;1.45;;;1.23;;
60454;SDS011;54989;53.398;6.564;2022-09-24T07:53:59;0.77;;;0.77;;
60454;SDS011;54989;53.398;6.564;2022-09-24T07:56:27;1.17;;;0.70;;
60454;SDS011;54989;53.398;6.564;2022-09-24T07:58:56;1.38;;;0.68;;
60454;SDS011;54989;53.398;6.564;2022-09-24T08:01:24;1.98;;;1.00;;
60454;SDS011;54989;53.398;6.564;2022-09-24T08:03:53;0.85;;;0.80;;
60454;SDS011;54989;53.398;6.564;2022-09-24T08:06:21;1.45;;;0.88;;
60454;SDS011;54989;53.398;6.564;2022-09-24T08:08:49;1.80;;;0.70;;
60454;SDS011;54989;53.398;6.564;2022-09-24T08:11:18;1.52;;;0.90;;
60454;SDS011;54989;53.398;6.564;2022-09-24T08:13:47;0.80;;;0.65;;
60454;SDS011;54989;53.398;6.564;2022-09-24T08:16:15;5.88;;;1.77;;
60454;SDS011;54989;53.398;6.564;2022-09-24T08:18:43;3.75;;;1.90;;
60454;SDS011;54989;53.398;6.564;2022-09-24T08:21:11;3.15;;;2.33;;
60454;SDS011;54989;53.398;6.564;2022-09-24T08:23:41;5.13;;;2.50;;
60454;SDS011;54989;53.398;6.564;2022-09-24T08:26:10;3.45;;;2.53;;
60454;SDS011;54989;53.398;6.564;2022-09-24T08:28:39;5.45;;;2.40;;
60454;SDS011;54989;53.398;6.564;2022-09-24T08:31:09;4.30;;;2.60;;
60454;SDS011;54989;53.398;6.564;2022-09-24T08:33:38;4.10;;;2.08;;
60454;SDS011;54989;53.398;6.564;2022-09-24T08:36:07;2.15;;;1.80;;
60454;SDS011;54989;53.398;6.564;2022-09-24T08:38:35;4.45;;;2.13;;
60454;SDS011;54989;53.398;6.564;2022-09-24T08:46:30;2.45;;;1.75;;
60454;SDS011;54989;53.398;6.564;2022-09-24T08:49:30;2.55;;;1.80;;
60454;SDS011;54989;53.398;6.564;2022-09-24T08:54:58;2.10;;;1.60;;
60454;SDS011;54989;53.398;6.564;2022-09-24T08:57:31;3.60;;;1.88;;
60454;SDS011;54989;53.398;6.564;2022-09-24T09:00:12;3.25;;;1.73;;
60454;SDS011;54989;53.398;6.564;2022-09-24T09:06:00;4.30;;;1.63;;
60454;SDS011;54989;53.398;6.564;2022-09-24T09:08:42;2.45;;;1.50;;
60454;SDS011;54989;53.398;6.564;2022-09-24T09:11:33;2.33;;;1.77;;
60454;SDS011;54989;53.398;6.564;2022-09-24T09:14:08;1.73;;;1.40;;
60454;SDS011;54989;53.398;6.564;2022-09-24T09:19:29;2.55;;;1.42;;
60454;SDS011;54989;53.398;6.564;2022-09-24T09:22:12;1.60;;;1.50;;
60454;SDS011;54989;53.398;6.564;2022-09-24T09:24:48;1.88;;;1.30;;
60454;SDS011;54989;53.398;6.564;2022-09-24T09:27:18;2.35;;;1.20;;
60454;SDS011;54989;53.398;6.564;2022-09-24T09:29:50;2.92;;;1.50;;
60454;SDS011;54989;53.398;6.564;2022-09-24T09:35:57;2.47;;;1.17;;
60454;SDS011;54989;53.398;6.564;2022-09-24T09:44:00;1.80;;;1.00;;
60454;SDS011;54989;53.398;6.564;2022-09-24T09:46:44;1.25;;;1.15;;
60454;SDS011;54989;53.398;6.564;2022-09-24T09:49:20;1.42;;;1.23;;
60454;SDS011;54989;53.398;6.564;2022-09-24T09:51:49;1.10;;;1.00;;
60454;SDS011;54989;53.398;6.564;2022-09-24T09:54:21;2.75;;;1.13;;
60454;SDS011;54989;53.398;6.564;2022-09-24T09:57:01;2.75;;;1.25;;
60454;SDS011;54989;53.398;6.564;2022-09-24T09:59:29;2.08;;;1.20;;
60454;SDS011;54989;53.398;6.564;2022-09-24T10:01:59;3.10;;;1.15;;
60454;SDS011;54989;53.398;6.564;2022-09-24T10:09:32;3.50;;;1.67;;
60454;SDS011;54989;53.398;6.564;2022-09-24T10:12:16;6.18;;;2.10;;
60454;SDS011;54989;53.398;6.564;2022-09-24T10:14:57;3.08;;;2.13;;
60454;SDS011;54989;53.398;6.564;2022-09-24T10:17:28;2.30;;;2.10;;
60454;SDS011;54989;53.398;6.564;2022-09-24T10:20:06;4.20;;;2.53;;
60454;SDS011;54989;53.398;6.564;2022-09-24T10:22:51;6.22;;;2.80;;
60454;SDS011;54989;53.398;6.564;2022-09-24T10:25:25;6.00;;;2.90;;
60454;SDS011;54989;53.398;6.564;2022-09-24T10:27:58;6.45;;;3.42;;
60454;SDS011;54989;53.398;6.564;2022-09-24T10:30:51;6.22;;;3.33;;
60454;SDS011;54989;53.398;6.564;2022-09-24T10:33:22;6.47;;;3.70;;
60454;SDS011;54989;53.398;6.564;2022-09-24T10:36:00;7.60;;;4.25;;
60454;SDS011;54989;53.398;6.564;2022-09-24T10:39:13;8.70;;;4.50;;
60454;SDS011;54989;53.398;6.564;2022-09-24T10:41:45;9.57;;;5.18;;
60454;SDS011;54989;53.398;6.564;2022-09-24T10:44:19;8.15;;;4.95;;
60454;SDS011;54989;53.398;6.564;2022-09-24T10:58:06;10.10;;;6.13;;
60454;SDS011;54989;53.398;6.564;2022-09-24T11:00:55;10.10;;;6.35;;
60454;SDS011;54989;53.398;6.564;2022-09-24T11:09:46;11.13;;;6.38;;
60454;SDS011;54989;53.398;6.564;2022-09-24T11:20:58;12.73;;;7.07;;
60454;SDS011;54989;53.398;6.564;2022-09-24T11:26:28;9.93;;;6.85;;
60454;SDS011;54989;53.398;6.564;2022-09-24T11:38:07;9.30;;;6.22;;
60454;SDS011;54989;53.398;6.564;2022-09-24T11:55:03;10.82;;;6.88;;
60454;SDS011;54989;53.398;6.564;2022-09-24T11:58:15;10.18;;;6.70;;
60454;SDS011;54989;53.398;6.564;2022-09-24T12:00:48;10.65;;;6.68;;
60454;SDS011;54989;53.398;6.564;2022-09-24T12:06:38;8.88;;;6.07;;
60454;SDS011;54989;53.398;6.564;2022-09-24T12:12:07;10.27;;;6.78;;
60454;SDS011;54989;53.398;6.564;2022-09-24T12:17:20;10.60;;;6.38;;
60454;SDS011;54989;53.398;6.564;2022-09-24T12:20:04;10.80;;;6.35;;
60454;SDS011;54989;53.398;6.564;2022-09-24T12:22:47;10.10;;;6.03;;
60454;SDS011;54989;53.398;6.564;2022-09-24T12:25:17;10.18;;;6.45;;
60454;SDS011;54989;53.398;6.564;2022-09-24T12:27:45;8.75;;;5.50;;
60454;SDS011;54989;53.398;6.564;2022-09-24T12:34:24;8.10;;;5.75;;
60454;SDS011;54989;53.398;6.564;2022-09-24T12:36:54;9.20;;;6.10;;
60454;SDS011;54989;53.398;6.564;2022-09-24T12:39:37;7.85;;;5.57;;
60454;SDS011;54989;53.398;6.564;2022-09-24T12:42:15;9.20;;;5.57;;
60454;SDS011;54989;53.398;6.564;2022-09-24T12:44:50;8.32;;;5.68;;
60454;SDS011;54989;53.398;6.564;2022-09-24T12:47:27;6.78;;;5.18;;
60454;SDS011;54989;53.398;6.564;2022-09-24T12:50:00;8.15;;;5.50;;
60454;SDS011;54989;53.398;6.564;2022-09-24T12:52:31;7.72;;;5.38;;
60454;SDS011;54989;53.398;6.564;2022-09-24T12:55:43;6.88;;;5.18;;
60454;SDS011;54989;53.398;6.564;2022-09-24T12:58:02;8.00;;;5.15;;
60454;SDS011;54989;53.398;6.564;2022-09-24T13:00:42;8.02;;;5.55;;
60454;SDS011;54989;53.398;6.564;2022-09-24T13:03:32;7.72;;;5.38;;
60454;SDS011;54989;53.398;6.564;2022-09-24T13:06:20;7.50;;;5.20;;
60454;SDS011;54989;53.398;6.564;2022-09-24T13:14:59;7.80;;;5.20;;
60454;SDS011;54989;53.398;6.564;2022-09-24T13:17:30;8.23;;;4.97;;
60454;SDS011;54989;53.398;6.564;2022-09-24T13:20:06;7.93;;;4.90;;
60454;SDS011;54989;53.398;6.564;2022-09-24T13:22:42;8.93;;;4.63;;
60454;SDS011;54989;53.398;6.564;2022-09-24T13:25:26;9.30;;;5.63;;
60454;SDS011;54989;53.398;6.564;2022-09-24T13:27:55;6.85;;;4.88;;
60454;SDS011;54989;53.398;6.564;2022-09-24T13:32:56;7.60;;;4.43;;
60454;SDS011;54989;53.398;6.564;2022-09-24T13:35:31;6.28;;;4.50;;
60454;SDS011;54989;53.398;6.564;2022-09-24T13:38:11;6.07;;;4.32;;
60454;SDS011;54989;53.398;6.564;2022-09-24T13:43:38;6.90;;;4.45;;
60454;SDS011;54989;53.398;6.564;2022-09-24T13:46:15;7.40;;;4.30;;
60454;SDS011;54989;53.398;6.564;2022-09-24T13:48:51;6.30;;;4.47;;
60454;SDS011;54989;53.398;6.564;2022-09-24T13:51:27;6.03;;;4.15;;
60454;SDS011;54989;53.398;6.564;2022-09-24T13:54:01;6.70;;;4.30;;
60454;SDS011;54989;53.398;6.564;2022-09-24T13:56:39;6.50;;;4.22;;
60454;SDS011;54989;53.398;6.564;2022-09-24T13:59:10;6.90;;;4.30;;
60454;SDS011;54989;53.398;6.564;2022-09-24T14:01:41;7.00;;;4.38;;
60454;SDS011;54989;53.398;6.564;2022-09-24T14:04:17;6.75;;;4.30;;
60454;SDS011;54989;53.398;6.564;2022-09-24T14:06:52;5.13;;;3.90;;
60454;SDS011;54989;53.398;6.564;2022-09-24T14:11:58;6.60;;;4.30;;
60454;SDS011;54989;53.398;6.564;2022-09-24T14:14:29;6.68;;;4.53;;
60454;SDS011;54989;53.398;6.564;2022-09-24T14:17:07;4.78;;;3.70;;
60454;SDS011;54989;53.398;6.564;2022-09-24T14:19:38;7.07;;;4.43;;
60454;SDS011;54989;53.398;6.564;2022-09-24T14:22:11;6.80;;;3.95;;
60454;SDS011;54989;53.398;6.564;2022-09-24T14:24:46;6.15;;;3.70;;
60454;SDS011;54989;53.398;6.564;2022-09-24T14:27:20;8.25;;;4.07;;
60454;SDS011;54989;53.398;6.564;2022-09-24T14:32:24;7.20;;;4.47;;
60454;SDS011;54989;53.398;6.564;2022-09-24T14:34:57;6.68;;;3.90;;
60454;SDS011;54989;53.398;6.564;2022-09-24T14:37:28;5.82;;;3.80;;
60454;SDS011;54989;53.398;6.564;2022-09-24T14:40:14;6.63;;;3.63;;
60454;SDS011;54989;53.398;6.564;2022-09-24T14:42:47;4.72;;;3.42;;
60454;SDS011;54989;53.398;6.564;2022-09-24T14:45:23;4.95;;;3.25;;
60454;SDS011;54989;53.398;6.564;2022-09-24T14:50:45;4.82;;;2.90;;
60454;SDS011;54989;53.398;6.564;2022-09-24T14:53:20;5.25;;;3.30;;
60454;SDS011;54989;53.398;6.564;2022-09-24T14:56:16;5.63;;;3.00;;
60454;SDS011;54989;53.398;6.564;2022-09-24T14:59:11;5.00;;;3.33;;
60454;SDS011;54989;53.398;6.564;2022-09-24T15:01:40;5.05;;;3.05;;
60454;SDS011;54989;53.398;6.564;2022-09-24T15:04:16;6.07;;;3.50;;
60454;SDS011;54989;53.398;6.564;2022-09-24T15:06:48;7.22;;;3.75;;
60454;SDS011;54989;53.398;6.564;2022-09-24T15:09:28;8.15;;;4.30;;
60454;SDS011;54989;53.398;6.564;2022-09-24T15:12:07;10.70;;;5.10;;
60454;SDS011;54989;53.398;6.564;2022-09-24T15:14:35;5.00;;;4.25;;
60454;SDS011;54989;53.398;6.564;2022-09-24T15:17:08;5.78;;;3.97;;
60454;SDS011;54989;53.398;6.564;2022-09-24T15:19:45;5.05;;;3.90;;
60454;SDS011;54989;53.398;6.564;2022-09-24T15:22:13;6.35;;;3.67;;
60454;SDS011;54989;53.398;6.564;2022-09-24T15:24:41;5.13;;;3.42;;
60454;SDS011;54989;53.398;6.564;2022-09-24T15:27:18;5.32;;;3.55;;
60454;SDS011;54989;53.398;6.564;2022-09-24T15:29:55;6.25;;;3.75;;
60454;SDS011;54989;53.398;6.564;2022-09-24T15:32:26;6.67;;;3.73;;
60454;SDS011;54989;53.398;6.564;2022-09-24T15:34:55;4.47;;;3.20;;
60454;SDS011;54989;53.398;6.564;2022-09-24T15:37:23;6.63;;;3.20;;
60454;SDS011;54989;53.398;6.564;2022-09-24T15:39:55;5.97;;;3.25;;
60454;SDS011;54989;53.398;6.564;2022-09-24T15:42:25;5.32;;;3.10;;
60454;SDS011;54989;53.398;6.564;2022-09-24T15:44:53;3.97;;;2.90;;
60454;SDS011;54989;53.398;6.564;2022-09-24T15:47:20;5.68;;;3.13;;
60454;SDS011;54989;53.398;6.564;2022-09-24T15:49:49;4.60;;;2.60;;
60454;SDS011;54989;53.398;6.564;2022-09-24T15:52:20;2.95;;;2.53;;
60454;SDS011;54989;53.398;6.564;2022-09-24T15:54:57;4.18;;;3.20;;
60454;SDS011;54989;53.398;6.564;2022-09-24T15:57:28;5.63;;;2.90;;
60454;SDS011;54989;53.398;6.564;2022-09-24T15:59:56;4.90;;;2.80;;
60454;SDS011;54989;53.398;6.564;2022-09-24T16:02:28;4.68;;;2.97;;
60454;SDS011;54989;53.398;6.564;2022-09-24T16:04:58;3.85;;;2.70;;
60454;SDS011;54989;53.398;6.564;2022-09-24T16:07:29;2.50;;;2.30;;
60454;SDS011;54989;53.398;6.564;2022-09-24T16:09:57;4.05;;;2.47;;
60454;SDS011;54989;53.398;6.564;2022-09-24T16:12:24;3.25;;;2.33;;
60454;SDS011;54989;53.398;6.564;2022-09-24T16:14:54;5.30;;;2.35;;
60454;SDS011;54989;53.398;6.564;2022-09-24T16:19:52;3.90;;;2.60;;
60454;SDS011;54989;53.398;6.564;2022-09-24T16:22:20;4.45;;;2.42;;
60454;SDS011;54989;53.398;6.564;2022-09-24T16:24:48;3.33;;;2.33;;
60454;SDS011;54989;53.398;6.564;2022-09-24T16:27:15;3.08;;;2.20;;
60454;SDS011;54989;53.398;6.564;2022-09-24T16:29:43;3.25;;;2.10;;
60454;SDS011;54989;53.398;6.564;2022-09-24T16:32:10;2.53;;;2.30;;
60454;SDS011;54989;53.398;6.564;2022-09-24T16:34:39;3.42;;;2.10;;
60454;SDS011;54989;53.398;6.564;2022-09-24T16:37:07;2.55;;;2.00;;
60454;SDS011;54989;53.398;6.564;2022-09-24T16:39:35;3.70;;;2.20;;
60454;SDS011;54989;53.398;6.564;2022-09-24T16:42:03;2.22;;;2.00;;
60454;SDS011;54989;53.398;6.564;2022-09-24T16:44:31;2.25;;;1.92;;
60454;SDS011;54989;53.398;6.564;2022-09-24T16:46:58;5.03;;;2.00;;
60454;SDS011;54989;53.398;6.564;2022-09-24T16:49:26;2.80;;;2.00;;
60454;SDS011;54989;53.398;6.564;2022-09-24T16:51:54;2.35;;;1.90;;
60454;SDS011;54989;53.398;6.564;2022-09-24T16:54:21;2.38;;;1.80;;
60454;SDS011;54989;53.398;6.564;2022-09-24T16:56:50;2.60;;;1.90;;
60454;SDS011;54989;53.398;6.564;2022-09-24T16:59:19;3.13;;;2.15;;
60454;SDS011;54989;53.398;6.564;2022-09-24T17:01:46;2.10;;;1.67;;
60454;SDS011;54989;53.398;6.564;2022-09-24T17:04:14;1.95;;;1.75;;
60454;SDS011;54989;53.398;6.564;2022-09-24T17:06:42;2.10;;;1.77;;
60454;SDS011;54989;53.398;6.564;2022-09-24T17:09:12;2.85;;;1.70;;
60454;SDS011;54989;53.398;6.564;2022-09-24T17:11:59;2.38;;;1.88;;
60454;SDS011;54989;53.398;6.564;2022-09-24T17:14:27;2.17;;;1.48;;
60454;SDS011;54989;53.398;6.564;2022-09-24T17:16:58;3.38;;;1.88;;
60454;SDS011;54989;53.398;6.564;2022-09-24T17:19:26;2.63;;;1.70;;
60454;SDS011;54989;53.398;6.564;2022-09-24T17:21:54;2.35;;;1.63;;
60454;SDS011;54989;53.398;6.564;2022-09-24T17:24:23;2.95;;;1.70;;
60454;SDS011;54989;53.398;6.564;2022-09-24T17:26:58;1.83;;;1.60;;
60454;SDS011;54989;53.398;6.564;2022-09-24T17:29:28;1.92;;;1.40;;
60454;SDS011;54989;53.398;6.564;2022-09-24T17:32:05;2.30;;;1.65;;
60454;SDS011;54989;53.398;6.564;2022-09-24T17:34:34;2.25;;;1.52;;